createdAt,value
2023-01-07T00:00:18.137Z,989.73
2023-01-07T00:01:18.074Z,989.71
2023-01-07T00:02:18.128Z,989.70
2023-01-07T00:03:18.036Z,989.65
2023-01-07T00:04:18.039Z,989.69
2023-01-07T00:05:18.060Z,989.64
2023-01-07T00:06:18.015Z,989.64
2023-01-07T00:07:17.993Z,989.66
2023-01-07T00:08:17.999Z,989.60
2023-01-07T00:09:17.991Z,989.62
2023-01-07T00:10:17.980Z,989.64
2023-01-07T00:11:17.981Z,989.65
2023-01-07T00:12:17.957Z,989.67
2023-01-07T00:13:17.938Z,989.74
2023-01-07T00:14:17.925Z,989.67
2023-01-07T00:15:17.910Z,989.69
2023-01-07T00:16:17.954Z,989.70
2023-01-07T00:17:17.900Z,989.70
2023-01-07T00:18:17.878Z,989.65
2023-01-07T00:19:17.909Z,989.67
2023-01-07T00:20:17.859Z,989.59
2023-01-07T00:21:17.861Z,989.66
2023-01-07T00:22:17.849Z,989.66
2023-01-07T00:23:17.860Z,989.68
2023-01-07T00:24:18.581Z,989.61
2023-01-07T00:25:17.801Z,989.62
2023-01-07T00:26:17.824Z,989.60
2023-01-07T00:27:17.795Z,989.57
2023-01-07T00:28:17.792Z,989.61
2023-01-07T00:29:17.760Z,989.54
2023-01-07T00:30:17.761Z,989.57
2023-01-07T00:31:17.879Z,989.58
2023-01-07T00:32:17.765Z,989.56
2023-01-07T00:33:17.737Z,989.51
2023-01-07T00:34:17.718Z,989.53
2023-01-07T00:35:17.712Z,989.52
2023-01-07T00:36:17.705Z,989.44
2023-01-07T00:37:17.705Z,989.42
2023-01-07T00:38:17.670Z,989.38
2023-01-07T00:39:17.672Z,989.40
2023-01-07T00:40:17.652Z,989.42
2023-01-07T00:41:17.648Z,989.40
2023-01-07T00:42:17.648Z,989.37
2023-01-07T00:43:17.625Z,989.40
2023-01-07T00:44:17.664Z,989.33
2023-01-07T00:45:17.592Z,989.34
2023-01-07T00:46:17.662Z,989.33
2023-01-07T00:47:17.582Z,989.27
2023-01-07T00:48:17.564Z,989.26
2023-01-07T00:49:17.683Z,989.27
2023-01-07T00:50:17.554Z,989.29
2023-01-07T00:51:17.542Z,989.33
2023-01-07T00:52:17.522Z,989.31
2023-01-07T00:53:17.505Z,989.31
2023-01-07T00:54:17.501Z,989.27
2023-01-07T00:55:17.527Z,989.24
2023-01-07T00:56:17.493Z,989.25
2023-01-07T00:57:17.475Z,989.24
2023-01-07T00:58:17.459Z,989.25
2023-01-07T00:59:17.436Z,989.24
2023-01-07T01:00:17.462Z,989.23
2023-01-07T01:01:17.658Z,989.24
2023-01-07T01:02:17.484Z,989.23
2023-01-07T01:03:17.397Z,989.24
2023-01-07T01:04:17.413Z,989.27
2023-01-07T01:05:17.398Z,989.26
2023-01-07T01:06:17.424Z,989.22
2023-01-07T01:07:17.367Z,989.24
2023-01-07T01:08:17.349Z,989.25
2023-01-07T01:09:17.339Z,989.21
2023-01-07T01:10:17.376Z,989.22
2023-01-07T01:11:17.341Z,989.19
2023-01-07T01:12:17.317Z,989.28
2023-01-07T01:13:18.284Z,989.17
2023-01-07T01:14:17.300Z,989.17
2023-01-07T01:15:17.289Z,989.18
2023-01-07T01:16:17.378Z,989.17
2023-01-07T01:17:17.248Z,989.22
2023-01-07T01:18:17.277Z,989.14
2023-01-07T01:19:17.299Z,989.13
2023-01-07T01:20:17.231Z,989.15
2023-01-07T01:21:17.319Z,989.14
2023-01-07T01:22:17.220Z,989.15
2023-01-07T01:23:17.185Z,989.13
2023-01-07T01:24:17.197Z,989.12
2023-01-07T01:25:17.188Z,989.15
2023-01-07T01:26:17.197Z,989.12
2023-01-07T01:27:17.155Z,989.15
2023-01-07T01:28:17.168Z,989.16
2023-01-07T01:29:17.141Z,989.11
2023-01-07T01:30:17.121Z,989.15
2023-01-07T01:31:17.128Z,989.16
2023-01-07T01:32:17.109Z,989.17
2023-01-07T01:33:17.095Z,989.14
2023-01-07T01:34:17.091Z,989.18
2023-01-07T01:35:17.062Z,989.14
2023-01-07T01:36:17.051Z,989.18
2023-01-07T01:37:17.054Z,989.15
2023-01-07T01:38:17.051Z,989.16
2023-01-07T01:39:17.048Z,989.20
2023-01-07T01:40:17.032Z,989.16
2023-01-07T01:41:16.993Z,989.15
2023-01-07T01:42:17.000Z,989.14
2023-01-07T01:43:16.983Z,989.12
2023-01-07T01:44:16.965Z,989.15
2023-01-07T01:45:16.972Z,989.11
2023-01-07T01:46:17.029Z,989.13
2023-01-07T01:47:16.932Z,989.12
2023-01-07T01:48:16.954Z,989.10
2023-01-07T01:49:16.934Z,989.07
2023-01-07T01:50:16.942Z,989.08
2023-01-07T01:51:16.885Z,989.04
2023-01-07T01:52:16.876Z,989.06
2023-01-07T01:53:16.895Z,989.09
2023-01-07T01:54:16.867Z,988.99
2023-01-07T01:55:16.904Z,989.03
2023-01-07T01:56:16.854Z,988.99
2023-01-07T01:57:16.845Z,989.00
2023-01-07T01:58:16.826Z,989.02
2023-01-07T01:59:16.813Z,988.97
2023-01-07T02:00:16.848Z,988.96
2023-01-07T02:01:16.978Z,988.97
2023-01-07T02:02:16.894Z,989.04
2023-01-07T02:03:16.796Z,989.01
2023-01-07T02:04:16.760Z,988.99
2023-01-07T02:05:16.741Z,988.96
2023-01-07T02:06:16.771Z,989.05
2023-01-07T02:07:16.746Z,988.94
2023-01-07T02:08:16.691Z,988.94
2023-01-07T02:09:16.685Z,988.91
2023-01-07T02:10:16.669Z,988.91
2023-01-07T02:11:16.663Z,988.93
2023-01-07T02:12:16.658Z,988.94
2023-01-07T02:13:16.632Z,988.88
2023-01-07T02:14:16.622Z,988.86
2023-01-07T02:15:16.633Z,988.88
2023-01-07T02:16:16.643Z,988.89
2023-01-07T02:17:16.614Z,988.83
2023-01-07T02:18:16.581Z,988.86
2023-01-07T02:19:16.584Z,988.82
2023-01-07T02:20:16.560Z,988.85
2023-01-07T02:21:16.560Z,988.80
2023-01-07T02:22:16.552Z,988.81
2023-01-07T02:23:16.533Z,988.77
2023-01-07T02:24:16.518Z,988.76
2023-01-07T02:25:16.514Z,988.80
2023-01-07T02:26:16.536Z,988.84
2023-01-07T02:27:16.505Z,988.76
2023-01-07T02:28:16.506Z,988.80
2023-01-07T02:29:16.505Z,988.80
2023-01-07T02:30:16.454Z,988.77
2023-01-07T02:31:16.524Z,988.72
2023-01-07T02:32:16.446Z,988.77
2023-01-07T02:33:16.426Z,988.71
2023-01-07T02:34:16.407Z,988.69
2023-01-07T02:35:16.404Z,988.71
2023-01-07T02:36:16.386Z,988.68
2023-01-07T02:37:16.399Z,988.68
2023-01-07T02:38:16.369Z,988.63
2023-01-07T02:39:16.377Z,988.62
2023-01-07T02:40:16.350Z,988.61
2023-01-07T02:41:16.337Z,988.61
2023-01-07T02:42:16.348Z,988.59
2023-01-07T02:43:16.355Z,988.52
2023-01-07T02:44:16.313Z,988.62
2023-01-07T02:45:16.306Z,988.57
2023-01-07T02:46:16.408Z,988.56
2023-01-07T02:47:16.278Z,988.58
2023-01-07T02:48:16.277Z,988.53
2023-01-07T02:49:16.249Z,988.47
2023-01-07T02:50:16.259Z,988.44
2023-01-07T02:51:16.239Z,988.40
2023-01-07T02:52:16.219Z,988.36
2023-01-07T02:53:16.223Z,988.37
2023-01-07T02:54:16.199Z,988.36
2023-01-07T02:55:16.189Z,988.32
2023-01-07T02:56:16.189Z,988.28
2023-01-07T02:57:16.169Z,988.29
2023-01-07T02:58:16.159Z,988.32
2023-01-07T02:59:16.159Z,988.35
2023-01-07T03:00:16.135Z,988.34
2023-01-07T03:01:16.242Z,988.31
2023-01-07T03:02:16.112Z,988.31
2023-01-07T03:03:16.121Z,988.29
2023-01-07T03:04:16.138Z,988.27
2023-01-07T03:05:16.107Z,988.27
2023-01-07T03:06:16.082Z,988.24
2023-01-07T03:07:16.087Z,988.23
2023-01-07T03:08:16.065Z,988.27
2023-01-07T03:09:16.052Z,988.22
2023-01-07T03:10:16.047Z,988.22
2023-01-07T03:11:16.022Z,988.21
2023-01-07T03:12:16.021Z,988.19
2023-01-07T03:13:15.997Z,988.21
2023-01-07T03:14:16.001Z,988.22
2023-01-07T03:15:15.986Z,988.18
2023-01-07T03:16:16.018Z,988.17
2023-01-07T03:17:15.962Z,988.22
2023-01-07T03:18:15.964Z,988.18
2023-01-07T03:19:15.935Z,988.18
2023-01-07T03:20:15.927Z,988.13
2023-01-07T03:21:15.913Z,988.15
2023-01-07T03:22:15.917Z,988.22
2023-01-07T03:23:15.906Z,988.13
2023-01-07T03:24:15.885Z,988.17
2023-01-07T03:25:15.875Z,988.09
2023-01-07T03:26:15.856Z,988.03
2023-01-07T03:27:15.862Z,988.07
2023-01-07T03:28:15.881Z,988.06
2023-01-07T03:29:15.833Z,988.00
2023-01-07T03:30:15.821Z,988.00
2023-01-07T03:31:15.833Z,987.99
2023-01-07T03:32:15.799Z,987.97
2023-01-07T03:33:15.806Z,987.98
2023-01-07T03:34:15.973Z,987.96
2023-01-07T03:35:15.765Z,987.97
2023-01-07T03:36:15.747Z,987.89
2023-01-07T03:37:15.765Z,987.98
2023-01-07T03:38:15.732Z,987.90
2023-01-07T03:39:15.727Z,987.91
2023-01-07T03:40:15.707Z,987.90
2023-01-07T03:41:15.708Z,987.91
2023-01-07T03:42:15.688Z,987.95
2023-01-07T03:43:15.686Z,987.89
2023-01-07T03:44:15.709Z,987.90
2023-01-07T03:45:15.667Z,987.90
2023-01-07T03:46:15.773Z,987.90
2023-01-07T03:47:15.642Z,987.93
2023-01-07T03:48:15.634Z,987.89
2023-01-07T03:49:15.638Z,987.88
2023-01-07T03:50:15.608Z,987.89
2023-01-07T03:51:15.604Z,987.89
2023-01-07T03:52:15.585Z,987.85
2023-01-07T03:53:15.580Z,987.82
2023-01-07T03:54:15.564Z,987.86
2023-01-07T03:55:15.561Z,987.81
2023-01-07T03:56:15.548Z,987.82
2023-01-07T03:57:15.534Z,987.77
2023-01-07T03:58:15.540Z,987.82
2023-01-07T03:59:15.511Z,987.81
2023-01-07T04:00:15.499Z,987.77
2023-01-07T04:01:15.619Z,987.76
2023-01-07T04:02:15.508Z,987.79
2023-01-07T04:03:15.469Z,987.75
2023-01-07T04:04:15.493Z,987.73
2023-01-07T04:05:15.449Z,987.65
2023-01-07T04:06:15.451Z,987.67
2023-01-07T04:07:15.423Z,987.62
2023-01-07T04:08:15.415Z,987.69
2023-01-07T04:09:15.406Z,987.57
2023-01-07T04:10:15.400Z,987.62
2023-01-07T04:11:15.396Z,987.56
2023-01-07T04:12:15.373Z,987.58
2023-01-07T04:13:15.364Z,987.55
2023-01-07T04:14:15.355Z,987.54
2023-01-07T04:15:15.356Z,987.57
2023-01-07T04:16:15.375Z,987.63
2023-01-07T04:17:15.314Z,987.59
2023-01-07T04:18:15.313Z,987.60
2023-01-07T04:19:15.314Z,987.51
2023-01-07T04:20:15.293Z,987.55
2023-01-07T04:21:15.333Z,987.54
2023-01-07T04:22:15.272Z,987.57
2023-01-07T04:23:15.278Z,987.53
2023-01-07T04:24:15.249Z,987.54
2023-01-07T04:25:15.240Z,987.58
2023-01-07T04:26:15.224Z,987.52
2023-01-07T04:27:15.215Z,987.52
2023-01-07T04:28:15.207Z,987.48
2023-01-07T04:29:15.206Z,987.50
2023-01-07T04:30:15.197Z,987.47
2023-01-07T04:31:15.218Z,987.49
2023-01-07T04:32:15.161Z,987.49
2023-01-07T04:33:15.157Z,987.48
2023-01-07T04:34:15.157Z,987.53
2023-01-07T04:35:15.124Z,987.42
2023-01-07T04:36:15.134Z,987.43
2023-01-07T04:37:15.106Z,987.42
2023-01-07T04:38:15.127Z,987.41
2023-01-07T04:39:15.086Z,987.44
2023-01-07T04:40:15.077Z,987.43
2023-01-07T04:41:15.087Z,987.40
2023-01-07T04:42:15.069Z,987.40
2023-01-07T04:43:15.038Z,987.40
2023-01-07T04:44:15.047Z,987.46
2023-01-07T04:45:15.019Z,987.43
2023-01-07T04:46:15.090Z,987.44
2023-01-07T04:47:15.006Z,987.39
2023-01-07T04:48:14.993Z,987.40
2023-01-07T04:49:14.978Z,987.36
2023-01-07T04:50:14.983Z,987.37
2023-01-07T04:51:14.969Z,987.28
2023-01-07T04:52:15.026Z,987.39
2023-01-07T04:53:14.930Z,987.37
2023-01-07T04:54:14.933Z,987.34
2023-01-07T04:55:14.910Z,987.33
2023-01-07T04:56:14.905Z,987.33
2023-01-07T04:57:14.898Z,987.32
2023-01-07T04:58:14.891Z,987.24
2023-01-07T04:59:14.892Z,987.23
2023-01-07T05:00:14.869Z,987.21
2023-01-07T05:01:14.969Z,987.24
2023-01-07T05:02:14.908Z,987.21
2023-01-07T05:03:14.862Z,987.21
2023-01-07T05:04:14.869Z,987.22
2023-01-07T05:05:14.811Z,987.14
2023-01-07T05:06:14.803Z,987.18
2023-01-07T05:07:14.794Z,987.18
2023-01-07T05:08:14.782Z,987.19
2023-01-07T05:09:14.772Z,987.20
2023-01-07T05:10:14.783Z,987.18
2023-01-07T05:11:14.743Z,987.20
2023-01-07T05:12:14.973Z,987.16
2023-01-07T05:13:14.743Z,987.15
2023-01-07T05:14:14.713Z,987.12
2023-01-07T05:15:14.706Z,987.11
2023-01-07T05:16:14.949Z,987.14
2023-01-07T05:17:14.692Z,987.04
2023-01-07T05:18:14.701Z,987.09
2023-01-07T05:19:14.656Z,987.06
2023-01-07T05:20:14.655Z,987.06
2023-01-07T05:21:14.646Z,987.06
2023-01-07T05:22:14.640Z,987.07
2023-01-07T05:23:14.619Z,987.01
2023-01-07T05:24:14.606Z,987.03
2023-01-07T05:25:14.615Z,987.07
2023-01-07T05:26:14.619Z,987.02
2023-01-07T05:27:14.586Z,987.02
2023-01-07T05:28:14.566Z,987.00
2023-01-07T05:29:14.557Z,986.99
2023-01-07T05:30:14.553Z,986.96
2023-01-07T05:31:14.582Z,987.00
2023-01-07T05:32:14.531Z,986.88
2023-01-07T05:33:14.510Z,986.99
2023-01-07T05:34:14.527Z,986.94
2023-01-07T05:35:14.490Z,986.95
2023-01-07T05:36:14.516Z,986.90
2023-01-07T05:37:14.468Z,986.90
2023-01-07T05:38:14.459Z,986.89
2023-01-07T05:39:14.449Z,986.93
2023-01-07T05:40:14.448Z,986.91
2023-01-07T05:41:14.448Z,986.94
2023-01-07T05:42:14.418Z,986.84
2023-01-07T05:43:14.411Z,986.84
2023-01-07T05:44:14.396Z,986.78
2023-01-07T05:45:14.389Z,986.83
2023-01-07T05:46:14.435Z,986.90
2023-01-07T05:47:14.364Z,986.87
2023-01-07T05:48:14.372Z,986.77
2023-01-07T05:49:14.350Z,986.79
2023-01-07T05:50:14.330Z,986.77
2023-01-07T05:51:14.321Z,986.74
2023-01-07T05:52:14.312Z,986.79
2023-01-07T05:53:14.320Z,986.73
2023-01-07T05:54:14.289Z,986.71
2023-01-07T05:55:14.281Z,986.64
2023-01-07T05:56:14.293Z,986.74
2023-01-07T05:57:14.272Z,986.72
2023-01-07T05:58:14.254Z,986.62
2023-01-07T05:59:14.239Z,986.68
2023-01-07T06:00:14.231Z,986.61
2023-01-07T06:01:14.299Z,986.60
2023-01-07T06:02:14.233Z,986.60
2023-01-07T06:03:14.219Z,986.58
2023-01-07T06:04:14.193Z,986.55
2023-01-07T06:05:14.183Z,986.63
2023-01-07T06:06:14.197Z,986.60
2023-01-07T06:07:14.151Z,986.65
2023-01-07T06:08:14.193Z,986.65
2023-01-07T06:09:14.134Z,986.58
2023-01-07T06:10:14.126Z,986.58
2023-01-07T06:11:14.118Z,986.61
2023-01-07T06:12:14.117Z,986.64
2023-01-07T06:13:14.088Z,986.58
2023-01-07T06:14:14.075Z,986.60
2023-01-07T06:15:14.082Z,986.54
2023-01-07T06:16:14.153Z,986.54
2023-01-07T06:17:14.045Z,986.55
2023-01-07T06:18:14.037Z,986.55
2023-01-07T06:19:14.046Z,986.51
2023-01-07T06:20:14.026Z,986.57
2023-01-07T06:21:14.003Z,986.54
2023-01-07T06:22:14.008Z,986.52
2023-01-07T06:23:13.987Z,986.49
2023-01-07T06:24:13.976Z,986.44
2023-01-07T06:25:13.956Z,986.50
2023-01-07T06:26:13.955Z,986.53
2023-01-07T06:27:13.961Z,986.51
2023-01-07T06:28:13.937Z,986.50
2023-01-07T06:29:13.921Z,986.56
2023-01-07T06:30:13.906Z,986.51
2023-01-07T06:31:13.931Z,986.55
2023-01-07T06:32:13.890Z,986.52
2023-01-07T06:33:13.880Z,986.51
2023-01-07T06:34:13.867Z,986.52
2023-01-07T06:35:13.861Z,986.52
2023-01-07T06:36:13.869Z,986.52
2023-01-07T06:37:13.932Z,986.50
2023-01-07T06:38:13.876Z,986.50
2023-01-07T06:39:13.946Z,986.50
2023-01-07T06:40:13.822Z,986.45
2023-01-07T06:41:13.988Z,986.46
2023-01-07T06:42:13.785Z,986.46
2023-01-07T06:43:13.773Z,986.46
2023-01-07T06:44:13.781Z,986.47
2023-01-07T06:45:13.753Z,986.42
2023-01-07T06:46:13.761Z,986.38
2023-01-07T06:47:13.719Z,986.38
2023-01-07T06:48:13.750Z,986.36
2023-01-07T06:49:13.701Z,986.35
2023-01-07T06:50:13.697Z,986.37
2023-01-07T06:51:13.681Z,986.31
2023-01-07T06:52:13.672Z,986.40
2023-01-07T06:53:13.681Z,986.39
2023-01-07T06:54:13.650Z,986.35
2023-01-07T06:55:13.650Z,986.31
2023-01-07T06:56:13.630Z,986.33
2023-01-07T06:57:13.621Z,986.26
2023-01-07T06:58:13.633Z,986.32
2023-01-07T06:59:13.602Z,986.34
2023-01-07T07:00:13.602Z,986.30
2023-01-07T07:01:13.661Z,986.32
2023-01-07T07:02:13.700Z,986.32
2023-01-07T07:03:13.654Z,986.24
2023-01-07T07:04:13.547Z,986.28
2023-01-07T07:05:14.194Z,986.24
2023-01-07T07:06:13.534Z,986.29
2023-01-07T07:07:13.525Z,986.32
2023-01-07T07:08:13.510Z,986.26
2023-01-07T07:09:13.491Z,986.28
2023-01-07T07:10:13.496Z,986.21
2023-01-07T07:11:13.471Z,986.27
2023-01-07T07:12:13.484Z,986.21
2023-01-07T07:13:13.453Z,986.26
2023-01-07T07:14:13.467Z,986.26
2023-01-07T07:15:13.425Z,986.21
2023-01-07T07:16:13.480Z,986.21
2023-01-07T07:17:13.408Z,986.21
2023-01-07T07:18:13.396Z,986.17
2023-01-07T07:19:13.407Z,986.19
2023-01-07T07:20:13.390Z,986.18
2023-01-07T07:21:13.365Z,986.18
2023-01-07T07:22:13.356Z,986.19
2023-01-07T07:23:13.348Z,986.15
2023-01-07T07:24:13.358Z,986.15
2023-01-07T07:25:13.333Z,986.26
2023-01-07T07:26:13.353Z,986.16
2023-01-07T07:27:13.318Z,986.16
2023-01-07T07:28:13.297Z,986.22
2023-01-07T07:29:13.281Z,986.25
2023-01-07T07:30:13.291Z,986.22
2023-01-07T07:31:13.277Z,986.16
2023-01-07T07:32:13.272Z,986.25
2023-01-07T07:33:13.249Z,986.21
2023-01-07T07:34:13.227Z,986.26
2023-01-07T07:35:13.227Z,986.21
2023-01-07T07:36:13.207Z,986.17
2023-01-07T07:37:13.196Z,986.19
2023-01-07T07:38:13.202Z,986.24
2023-01-07T07:39:13.208Z,986.20
2023-01-07T07:40:13.167Z,986.15
2023-01-07T07:41:13.174Z,986.12
2023-01-07T07:42:13.147Z,986.11
2023-01-07T07:43:13.413Z,986.11
2023-01-07T07:44:13.128Z,986.13
2023-01-07T07:45:13.128Z,986.07
2023-01-07T07:46:13.189Z,986.10
2023-01-07T07:47:13.088Z,986.08
2023-01-07T07:48:13.089Z,986.09
2023-01-07T07:49:13.081Z,986.05
2023-01-07T07:50:13.068Z,986.07
2023-01-07T07:51:13.064Z,986.08
2023-01-07T07:52:13.040Z,986.02
2023-01-07T07:53:13.030Z,985.99
2023-01-07T07:54:13.020Z,986.04
2023-01-07T07:55:20.676Z,985.97
2023-01-07T07:56:14.015Z,985.96
2023-01-07T07:57:13.010Z,985.95
2023-01-07T07:58:12.982Z,985.93
2023-01-07T07:59:12.991Z,985.96
2023-01-07T08:00:12.958Z,986.00
2023-01-07T08:01:12.977Z,985.90
2023-01-07T08:02:12.964Z,985.93
2023-01-07T08:03:12.969Z,985.93
2023-01-07T08:04:12.921Z,985.94
2023-01-07T08:05:12.927Z,985.93
2023-01-07T08:06:12.904Z,985.93
2023-01-07T08:07:12.874Z,985.91
2023-01-07T08:08:12.876Z,985.91
2023-01-07T08:09:12.860Z,985.89
2023-01-07T08:10:12.881Z,985.89
2023-01-07T08:11:12.837Z,985.87
2023-01-07T08:12:12.822Z,985.90
2023-01-07T08:13:12.845Z,985.89
2023-01-07T08:14:12.804Z,985.86
2023-01-07T08:15:12.804Z,985.90
2023-01-07T08:16:12.861Z,985.87
2023-01-07T08:17:12.774Z,985.82
2023-01-07T08:18:12.773Z,985.85
2023-01-07T08:19:12.764Z,985.85
2023-01-07T08:20:12.740Z,985.84
2023-01-07T08:21:12.747Z,985.79
2023-01-07T08:22:12.736Z,985.81
2023-01-07T08:23:12.710Z,985.79
2023-01-07T08:24:13.415Z,985.73
2023-01-07T08:25:12.706Z,985.75
2023-01-07T08:26:13.817Z,985.73
2023-01-07T08:27:12.674Z,985.85
2023-01-07T08:28:13.355Z,985.76
2023-01-07T08:29:12.655Z,985.78
2023-01-07T08:30:12.700Z,985.74
2023-01-07T08:31:12.669Z,985.73
2023-01-07T08:32:13.238Z,985.73
2023-01-07T08:33:12.605Z,985.76
2023-01-07T08:34:12.827Z,985.75
2023-01-07T08:35:12.587Z,985.73
2023-01-07T08:36:22.639Z,985.77
2023-01-07T08:37:13.576Z,985.75
2023-01-07T08:38:12.565Z,985.73
2023-01-07T08:39:12.551Z,985.77
2023-01-07T08:40:12.527Z,985.75
2023-01-07T08:41:12.523Z,985.75
2023-01-07T08:42:12.527Z,985.71
2023-01-07T08:43:12.515Z,985.72
2023-01-07T08:44:12.478Z,985.71
2023-01-07T08:45:12.482Z,985.68
2023-01-07T08:46:12.464Z,985.67
2023-01-07T08:47:12.488Z,985.69
2023-01-07T08:48:12.460Z,985.67
2023-01-07T08:49:12.454Z,985.67
2023-01-07T08:50:12.419Z,985.62
2023-01-07T08:51:12.412Z,985.65
2023-01-07T08:52:12.399Z,985.63
2023-01-07T08:53:12.389Z,985.68
2023-01-07T08:54:12.389Z,985.65
2023-01-07T08:55:12.376Z,985.69
2023-01-07T08:56:12.350Z,985.64
2023-01-07T08:57:12.381Z,985.62
2023-01-07T08:58:12.332Z,985.58
2023-01-07T08:59:12.338Z,985.59
2023-01-07T09:00:13.587Z,985.56
2023-01-07T09:01:12.486Z,985.54
2023-01-07T09:02:12.431Z,985.58
2023-01-07T09:03:12.286Z,985.62
2023-01-07T09:04:12.270Z,985.58
2023-01-07T09:05:12.267Z,985.58
2023-01-07T09:06:12.269Z,985.58
2023-01-07T09:07:12.249Z,985.56
2023-01-07T09:08:12.236Z,985.55
2023-01-07T09:09:12.216Z,985.56
2023-01-07T09:10:12.205Z,985.56
2023-01-07T09:11:12.236Z,985.56
2023-01-07T09:12:12.185Z,985.54
2023-01-07T09:13:12.192Z,985.50
2023-01-07T09:14:12.199Z,985.50
2023-01-07T09:15:12.155Z,985.56
2023-01-07T09:16:12.158Z,985.57
2023-01-07T09:17:12.133Z,985.54
2023-01-07T09:18:12.125Z,985.59
2023-01-07T09:19:12.113Z,985.58
2023-01-07T09:20:12.101Z,985.57
2023-01-07T09:21:12.097Z,985.55
2023-01-07T09:22:12.074Z,985.61
2023-01-07T09:23:12.071Z,985.56
2023-01-07T09:24:12.078Z,985.54
2023-01-07T09:25:12.044Z,985.50
2023-01-07T09:26:12.042Z,985.50
2023-01-07T09:27:12.055Z,985.53
2023-01-07T09:28:12.037Z,985.52
2023-01-07T09:29:12.013Z,985.53
2023-01-07T09:30:12.005Z,985.57
2023-01-07T09:31:12.023Z,985.54
2023-01-07T09:32:11.966Z,985.55
2023-01-07T09:33:11.979Z,985.61
2023-01-07T09:34:11.945Z,985.59
2023-01-07T09:35:11.946Z,985.60
2023-01-07T09:36:11.934Z,985.58
2023-01-07T09:37:11.917Z,985.61
2023-01-07T09:38:11.920Z,985.56
2023-01-07T09:39:11.899Z,985.56
2023-01-07T09:40:11.877Z,985.56
2023-01-07T09:41:11.887Z,985.65
2023-01-07T09:42:11.858Z,985.61
2023-01-07T09:43:11.858Z,985.61
2023-01-07T09:44:11.871Z,985.65
2023-01-07T09:45:11.827Z,985.60
2023-01-07T09:46:11.885Z,985.59
2023-01-07T09:47:11.808Z,985.63
2023-01-07T09:48:11.808Z,985.50
2023-01-07T09:49:11.807Z,985.53
2023-01-07T09:50:11.780Z,985.56
2023-01-07T09:51:11.772Z,985.42
2023-01-07T09:52:11.749Z,985.46
2023-01-07T09:53:11.769Z,985.44
2023-01-07T09:54:11.759Z,985.48
2023-01-07T09:55:11.741Z,985.41
2023-01-07T09:56:12.844Z,985.48
2023-01-07T09:57:11.709Z,985.41
2023-01-07T09:58:11.691Z,985.41
2023-01-07T09:59:11.699Z,985.40
2023-01-07T10:00:11.679Z,985.47
2023-01-07T10:01:11.677Z,985.38
2023-01-07T10:02:11.666Z,985.33
2023-01-07T10:03:11.641Z,985.34
2023-01-07T10:04:11.713Z,985.32
2023-01-07T10:05:11.657Z,985.38
2023-01-07T10:06:11.637Z,985.27
2023-01-07T10:07:11.609Z,985.29
2023-01-07T10:08:31.900Z,985.28
2023-01-07T10:09:12.573Z,985.29
2023-01-07T10:10:11.565Z,985.28
2023-01-07T10:11:11.572Z,985.24
2023-01-07T10:12:11.541Z,985.19
2023-01-07T10:13:11.532Z,985.16
2023-01-07T10:14:11.513Z,985.20
2023-01-07T10:15:11.523Z,985.19
2023-01-07T10:16:11.546Z,985.18
2023-01-07T10:17:11.502Z,985.15
2023-01-07T10:18:11.477Z,985.13
2023-01-07T10:19:11.473Z,985.13
2023-01-07T10:20:11.473Z,985.16
2023-01-07T10:21:11.445Z,985.12
2023-01-07T10:22:11.433Z,985.04
2023-01-07T10:23:11.424Z,985.12
2023-01-07T10:24:11.414Z,985.05
2023-01-07T10:25:11.414Z,985.07
2023-01-07T10:26:11.404Z,984.93
2023-01-07T10:27:11.381Z,984.89
2023-01-07T10:28:11.364Z,984.88
2023-01-07T10:29:11.362Z,984.88
2023-01-07T10:30:11.364Z,984.90
2023-01-07T10:31:11.362Z,984.89
2023-01-07T10:32:11.361Z,984.87
2023-01-07T10:33:11.317Z,984.80
2023-01-07T10:34:11.303Z,984.88
2023-01-07T10:35:11.305Z,984.83
2023-01-07T10:36:11.278Z,984.83
2023-01-07T10:37:11.289Z,984.87
2023-01-07T10:38:11.287Z,984.80
2023-01-07T10:39:11.282Z,984.85
2023-01-07T10:40:11.857Z,984.89
2023-01-07T10:41:11.236Z,984.79
2023-01-07T10:42:11.230Z,984.75
2023-01-07T10:43:11.210Z,984.74
2023-01-07T10:44:11.200Z,984.73
2023-01-07T10:45:11.192Z,984.69
2023-01-07T10:46:11.528Z,984.66
2023-01-07T10:47:11.884Z,984.72
2023-01-07T10:48:11.180Z,984.63
2023-01-07T10:49:11.165Z,984.58
2023-01-07T10:50:11.126Z,984.73
2023-01-07T10:51:11.151Z,984.61
2023-01-07T10:52:11.113Z,984.65
2023-01-07T10:53:11.126Z,984.57
2023-01-07T10:54:11.090Z,984.63
2023-01-07T10:55:11.083Z,984.63
2023-01-07T10:56:11.064Z,984.52
2023-01-07T10:57:11.064Z,984.45
2023-01-07T10:58:11.041Z,984.50
2023-01-07T10:59:12.262Z,984.42
2023-01-07T11:00:11.022Z,984.39
2023-01-07T11:01:11.076Z,984.37
2023-01-07T11:02:11.180Z,984.37
2023-01-07T11:03:11.088Z,984.29
2023-01-07T11:04:10.992Z,984.32
2023-01-07T11:05:10.985Z,984.30
2023-01-07T11:06:10.959Z,984.31
2023-01-07T11:07:10.952Z,984.28
2023-01-07T11:08:10.942Z,984.32
2023-01-07T11:09:10.933Z,984.31
2023-01-07T11:10:10.932Z,984.26
2023-01-07T11:11:10.913Z,984.20
2023-01-07T11:12:10.894Z,984.19
2023-01-07T11:13:10.892Z,984.19
2023-01-07T11:14:10.882Z,984.15
2023-01-07T11:15:10.928Z,984.10
2023-01-07T11:16:10.890Z,984.14
2023-01-07T11:17:10.848Z,984.10
2023-01-07T11:18:11.758Z,984.08
2023-01-07T11:19:10.856Z,984.04
2023-01-07T11:20:10.819Z,984.06
2023-01-07T11:21:42.921Z,984.08
2023-01-07T11:22:11.784Z,984.00
2023-01-07T11:23:10.782Z,983.98
2023-01-07T11:24:10.767Z,984.01
2023-01-07T11:25:10.775Z,984.00
2023-01-07T11:26:10.752Z,984.06
2023-01-07T11:27:10.736Z,983.97
2023-01-07T11:28:10.733Z,983.88
2023-01-07T11:29:10.735Z,983.89
2023-01-07T11:30:10.705Z,983.89
2023-01-07T11:31:10.711Z,983.82
2023-01-07T11:32:10.695Z,983.81
2023-01-07T11:33:10.677Z,983.84
2023-01-07T11:34:10.680Z,983.77
2023-01-07T11:35:10.649Z,983.78
2023-01-07T11:36:10.640Z,983.80
2023-01-07T11:37:10.628Z,983.69
2023-01-07T11:38:10.632Z,983.66
2023-01-07T11:39:11.610Z,983.68
2023-01-07T11:40:12.454Z,983.72
2023-01-07T11:41:11.584Z,983.66
2023-01-07T11:42:10.581Z,983.67
2023-01-07T11:43:11.322Z,983.67
2023-01-07T11:44:10.570Z,983.65
2023-01-07T11:45:11.256Z,983.59
2023-01-07T11:46:21.149Z,983.54
2023-01-07T11:47:12.247Z,983.56
2023-01-07T11:48:10.573Z,983.51
2023-01-07T11:49:11.200Z,983.54
2023-01-07T11:50:10.499Z,983.52
2023-01-07T11:51:10.611Z,983.53
2023-01-07T11:52:10.493Z,983.58
2023-01-07T11:53:10.508Z,983.43
2023-01-07T11:54:10.640Z,983.47
2023-01-07T11:55:10.490Z,983.39
2023-01-07T11:56:10.422Z,983.35
2023-01-07T11:57:10.529Z,983.30
2023-01-07T11:58:28.090Z,983.30
2023-01-07T11:59:11.457Z,983.25
2023-01-07T12:00:10.393Z,983.25
2023-01-07T12:01:10.470Z,983.23
2023-01-07T12:02:10.376Z,983.18
2023-01-07T12:03:10.420Z,983.10
2023-01-07T12:04:10.357Z,983.07
2023-01-07T12:05:10.624Z,983.07
2023-01-07T12:06:10.319Z,982.98
2023-01-07T12:07:10.314Z,982.99
2023-01-07T12:08:10.315Z,982.92
2023-01-07T12:09:10.581Z,982.86
2023-01-07T12:10:10.275Z,982.83
2023-01-07T12:11:10.276Z,982.89
2023-01-07T12:12:10.261Z,982.81
2023-01-07T12:13:10.247Z,982.77
2023-01-07T12:14:10.236Z,982.80
2023-01-07T12:15:10.273Z,982.76
2023-01-07T12:16:10.290Z,982.75
2023-01-07T12:17:10.205Z,982.69
2023-01-07T12:18:10.213Z,982.62
2023-01-07T12:19:10.221Z,982.57
2023-01-07T12:20:10.244Z,982.55
2023-01-07T12:21:10.162Z,982.55
2023-01-07T12:22:10.147Z,982.58
2023-01-07T12:23:10.143Z,982.53
2023-01-07T12:24:10.131Z,982.45
2023-01-07T12:25:10.409Z,982.43
2023-01-07T12:26:10.150Z,982.46
2023-01-07T12:27:10.088Z,982.37
2023-01-07T12:28:10.088Z,982.36